Ginga — JJ4054 — position and weather

sailwx.info

Track history (hours):
 
Tides and Currents Weather Stations Pressure Air Temp Water Temp Dewpoint Dewpoint Depression Visibility Wind Speed Wind Dir Waves Ship Positions

Ginga

Last reported at 2017-Apr-25 06:07 UTC. Time now 2017-Apr-25 12:29 UTC.
Position N 34°39' E 135°09'.

Length 28 m; draft 1.6 m.

Type: Other ship. MMSI: 431301704.

Date/timePositionNaut miles runAvg speedWind from/ knotsBaromVisibWave heightAir tempDewpointWater temp
2017-Apr-25 06:07N 34°39' E 135°09'1 5.6
2017-Apr-25 06:00N 34°39' E 135°10'612.3
2017-Apr-25 05:30N 34°35' E 135°04'610.1
2017-Apr-25 04:53N 34°36' E 134°56'513.4
2017-Apr-25 04:30N 34°37' E 135°03'0 0.0
2017-Apr-24 17:43N 34°38' E 135°03'314.9
2017-Apr-24 17:30N 34°38' E 134°59'3 6.6
2017-Apr-24 17:00N 34°36' E 135°03'4 7.7
2017-Apr-24 16:30N 34°36' E 135°07'4 7.4
2017-Apr-24 16:00N 34°39' E 135°10'1 1.2
2017-Apr-24 15:30N 34°39' E 135°09'0 0.0
2017-Apr-24 09:22N 34°39' E 135°09'410.6
2017-Apr-24 09:00N 34°37' E 135°06'7 6.2
2017-Apr-24 07:56N 34°37' E 134°58'410.1
2017-Apr-24 07:29N 34°38' E 135°03'0 0.0
2017-Apr-24 03:05N 34°38' E 135°03'1 7.4
2017-Apr-24 03:00N 34°37' E 135°03'1 1.7
2017-Apr-24 02:19N 34°37' E 135°01'3 9.4
2017-Apr-24 02:00N 34°36' E 135°04'2 3.3
2017-Apr-24 01:30N 34°36' E 135°06'3 6.1
2017-Apr-24 01:00N 34°38' E 135°03'0 0.0
2017-Apr-23 23:42N 34°38' E 135°03'312.4
2017-Apr-23 23:26N 34°38' E 134°59'2 3.8
2017-Apr-23 22:58N 34°37' E 135°01'612.2
2017-Apr-23 22:30N 34°35' E 135°07'5 9.5
2017-Apr-23 22:00N 34°34' E 135°13'1 1.9
2017-Apr-23 21:30N 34°35' E 135°12'5 9.4
2017-Apr-23 21:00N 34°39' E 135°09'0 0.0
2017-Apr-23 20:30N 34°39' E 135°09'0 0.0
2017-Apr-22 02:21N 34°39' E 135°09'410.2
2017-Apr-22 02:00N 34°37' E 135°06'612.4
2017-Apr-22 01:31N 34°37' E 134°58'4 8.1
2017-Apr-22 00:59N 34°36' E 135°03'3 5.7
2017-Apr-22 00:30N 34°35' E 135°06'1 1.0
2017-Apr-21 23:59N 34°36' E 135°07'1 2.1
2017-Apr-21 23:30N 34°37' E 135°07'1 1.2
2017-Apr-21 23:00N 34°37' E 135°06'3 6.5
2017-Apr-21 22:30N 34°37' E 135°02'4 8.0
2017-Apr-21 21:59N 34°37' E 134°57'611.7
2017-Apr-21 21:30N 34°36' E 135°04'4 7.4
2017-Apr-21 21:00N 34°35' E 135°08'4 7.3
2017-Apr-21 20:30N 34°39' E 135°09'0 0.0
2017-Apr-21 19:58N 34°39' E 135°09'0 0.0
2017-Apr-21 03:16N 34°39' E 135°10'413.5
2017-Apr-21 03:00N 34°36' E 135°08'8 8.2
2017-Apr-21 01:59N 34°37' E 134°57'4 8.2
2017-Apr-21 01:28N 34°37' E 135°03'613.2
2017-Apr-21 01:00N 34°39' E 135°10'0 0.8
2017-Apr-21 00:30N 34°39' E 135°09'0 0.0
2017-Apr-20 23:59N 34°39' E 135°09'0 0.0
2017-Apr-20 08:22N 34°39' E 135°10'515.3
2017-Apr-20 08:00N 34°36' E 135°05'5 4.8
2017-Apr-20 06:58N 34°38' E 134°59'714.3
2017-Apr-20 06:30N 34°38' E 135°07'2 4.7
2017-Apr-20 06:00N 34°39' E 135°09'0 0.0
2017-Apr-20 05:30N 34°39' E 135°09'0 0.0
2017-Apr-19 06:12N 34°39' E 135°09'1 5.6
2017-Apr-19 06:00N 34°38' E 135°09'10 1.0
2017-Apr-18 19:37N 34°37' E 134°57'2 9.5
2017-Apr-18 19:25N 34°37' E 134°59'3 8.2
2017-Apr-18 19:00N 34°36' E 135°03'3 6.1
2017-Apr-18 18:30N 34°35' E 135°06'3 6.1
2017-Apr-18 18:00N 34°33' E 135°08'713.0
2017-Apr-18 17:30N 34°27' E 135°05'1713.4
2017-Apr-18 16:16N 34°11' E 134°60'18 1.5
2017-Apr-18 04:56N 34°28' E 134°60'815.3
2017-Apr-18 04:25N 34°36' E 135°01'1 2.7
2017-Apr-18 03:57N 34°37' E 135°01'4 8.8
2017-Apr-18 03:30N 34°35' E 135°05'3 5.4
2017-Apr-18 03:01N 34°35' E 135°09'5 9.5
2017-Apr-18 02:31N 34°39' E 135°11'0 0.7
2017-Apr-18 02:00N 34°40' E 135°11'1015.1
2017-Apr-18 01:22N 34°38' E 134°60'1 2.8
2017-Apr-18 00:55N 34°37' E 135°01'511.2
2017-Apr-18 00:30N 34°35' E 135°06'2 3.3
2017-Apr-18 00:00N 34°34' E 135°08'4 7.7
2017-Apr-17 23:30N 34°35' E 135°03'4 7.5
2017-Apr-17 23:00N 34°37' E 134°59'3 5.0
2017-Apr-17 22:29N 34°37' E 135°02'3 7.0
2017-Apr-17 22:00N 34°35' E 135°06'3 5.1
2017-Apr-17 21:30N 34°36' E 135°09'3 5.7
2017-Apr-17 21:00N 34°39' E 135°09'0 0.0
2017-Apr-17 09:57N 34°39' E 135°09'511.5
2017-Apr-17 09:30N 34°35' E 135°05'816.6
2017-Apr-17 09:00N 34°29' E 134°59'3 1.5
2017-Apr-17 06:59N 34°28' E 135°03'511.3
2017-Apr-17 06:30N 34°33' E 135°06'2 3.6
2017-Apr-17 05:59N 34°34' E 135°06'7 0.3
2017-Apr-16 04:12N 34°37' E 134°58'312.0
2017-Apr-16 03:56N 34°37' E 135°01'4 8.6
2017-Apr-16 03:29N 34°35' E 135°06'2 4.0
2017-Apr-16 03:00N 34°34' E 135°07'12 3.4
2017-Apr-15 23:38N 34°23' E 135°01'215.2
2017-Apr-15 23:30N 34°25' E 135°02'815.7
2017-Apr-15 23:00N 34°32' E 135°06'815.4
2017-Apr-15 22:30N 34°39' E 135°11'1 2.5
2017-Apr-15 22:00N 34°39' E 135°10'  
Track history (hours):
 
Tides and Currents Weather Stations Pressure Air Temp Water Temp Dewpoint Dewpoint Depression Visibility Wind Speed Wind Dir Waves Ship Positions

Ginga

Last reported at 2017-Apr-25 06:07 UTC. Time now 2017-Apr-25 12:29 UTC.
Position N 34°39' E 135°09'.

Length 28 m; draft 1.6 m.

Type: Other ship. MMSI: 431301704.

Date/timePositionNaut miles runAvg speedWind from/ knotsBaromVisibWave heightAir tempDewpointWater temp
2017-Apr-25 06:07N 34°39' E 135°09'1 5.6
2017-Apr-25 06:00N 34°39' E 135°10'612.3
2017-Apr-25 05:30N 34°35' E 135°04'610.1
2017-Apr-25 04:53N 34°36' E 134°56'513.4
2017-Apr-25 04:30N 34°37' E 135°03'0 0.0
2017-Apr-24 17:43N 34°38' E 135°03'314.9
2017-Apr-24 17:30N 34°38' E 134°59'3 6.6
2017-Apr-24 17:00N 34°36' E 135°03'4 7.7
2017-Apr-24 16:30N 34°36' E 135°07'4 7.4
2017-Apr-24 16:00N 34°39' E 135°10'1 1.2
2017-Apr-24 15:30N 34°39' E 135°09'0 0.0
2017-Apr-24 09:22N 34°39' E 135°09'410.6
2017-Apr-24 09:00N 34°37' E 135°06'7 6.2
2017-Apr-24 07:56N 34°37' E 134°58'410.1
2017-Apr-24 07:29N 34°38' E 135°03'0 0.0
2017-Apr-24 03:05N 34°38' E 135°03'1 7.4
2017-Apr-24 03:00N 34°37' E 135°03'1 1.7
2017-Apr-24 02:19N 34°37' E 135°01'3 9.4
2017-Apr-24 02:00N 34°36' E 135°04'2 3.3
2017-Apr-24 01:30N 34°36' E 135°06'3 6.1
2017-Apr-24 01:00N 34°38' E 135°03'0 0.0
2017-Apr-23 23:42N 34°38' E 135°03'312.4
2017-Apr-23 23:26N 34°38' E 134°59'2 3.8
2017-Apr-23 22:58N 34°37' E 135°01'612.2
2017-Apr-23 22:30N 34°35' E 135°07'5 9.5
2017-Apr-23 22:00N 34°34' E 135°13'1 1.9
2017-Apr-23 21:30N 34°35' E 135°12'5 9.4
2017-Apr-23 21:00N 34°39' E 135°09'0 0.0
2017-Apr-23 20:30N 34°39' E 135°09'0 0.0
2017-Apr-22 02:21N 34°39' E 135°09'410.2
2017-Apr-22 02:00N 34°37' E 135°06'612.4
2017-Apr-22 01:31N 34°37' E 134°58'4 8.1
2017-Apr-22 00:59N 34°36' E 135°03'3 5.7
2017-Apr-22 00:30N 34°35' E 135°06'1 1.0
2017-Apr-21 23:59N 34°36' E 135°07'1 2.1
2017-Apr-21 23:30N 34°37' E 135°07'1 1.2
2017-Apr-21 23:00N 34°37' E 135°06'3 6.5
2017-Apr-21 22:30N 34°37' E 135°02'4 8.0
2017-Apr-21 21:59N 34°37' E 134°57'611.7
2017-Apr-21 21:30N 34°36' E 135°04'4 7.4
2017-Apr-21 21:00N 34°35' E 135°08'4 7.3
2017-Apr-21 20:30N 34°39' E 135°09'0 0.0
2017-Apr-21 19:58N 34°39' E 135°09'0 0.0
2017-Apr-21 03:16N 34°39' E 135°10'413.5
2017-Apr-21 03:00N 34°36' E 135°08'8 8.2
2017-Apr-21 01:59N 34°37' E 134°57'4 8.2
2017-Apr-21 01:28N 34°37' E 135°03'613.2
2017-Apr-21 01:00N 34°39' E 135°10'0 0.8
2017-Apr-21 00:30N 34°39' E 135°09'0 0.0
2017-Apr-20 23:59N 34°39' E 135°09'0 0.0
2017-Apr-20 08:22N 34°39' E 135°10'515.3
2017-Apr-20 08:00N 34°36' E 135°05'5 4.8
2017-Apr-20 06:58N 34°38' E 134°59'714.3
2017-Apr-20 06:30N 34°38' E 135°07'2 4.7
2017-Apr-20 06:00N 34°39' E 135°09'0 0.0
2017-Apr-20 05:30N 34°39' E 135°09'0 0.0
2017-Apr-19 06:12N 34°39' E 135°09'1 5.6
2017-Apr-19 06:00N 34°38' E 135°09'10 1.0
2017-Apr-18 19:37N 34°37' E 134°57'2 9.5
2017-Apr-18 19:25N 34°37' E 134°59'3 8.2
2017-Apr-18 19:00N 34°36' E 135°03'3 6.1
2017-Apr-18 18:30N 34°35' E 135°06'3 6.1
2017-Apr-18 18:00N 34°33' E 135°08'713.0
2017-Apr-18 17:30N 34°27' E 135°05'1713.4
2017-Apr-18 16:16N 34°11' E 134°60'18 1.5
2017-Apr-18 04:56N 34°28' E 134°60'815.3
2017-Apr-18 04:25N 34°36' E 135°01'1 2.7
2017-Apr-18 03:57N 34°37' E 135°01'4 8.8
2017-Apr-18 03:30N 34°35' E 135°05'3 5.4
2017-Apr-18 03:01N 34°35' E 135°09'5 9.5
2017-Apr-18 02:31N 34°39' E 135°11'0 0.7
2017-Apr-18 02:00N 34°40' E 135°11'1015.1
2017-Apr-18 01:22N 34°38' E 134°60'1 2.8
2017-Apr-18 00:55N 34°37' E 135°01'511.2
2017-Apr-18 00:30N 34°35' E 135°06'2 3.3
2017-Apr-18 00:00N 34°34' E 135°08'4 7.7
2017-Apr-17 23:30N 34°35' E 135°03'4 7.5
2017-Apr-17 23:00N 34°37' E 134°59'3 5.0
2017-Apr-17 22:29N 34°37' E 135°02'3 7.0
2017-Apr-17 22:00N 34°35' E 135°06'3 5.1
2017-Apr-17 21:30N 34°36' E 135°09'3 5.7
2017-Apr-17 21:00N 34°39' E 135°09'0 0.0
2017-Apr-17 09:57N 34°39' E 135°09'511.5
2017-Apr-17 09:30N 34°35' E 135°05'816.6
2017-Apr-17 09:00N 34°29' E 134°59'3 1.5
2017-Apr-17 06:59N 34°28' E 135°03'511.3
2017-Apr-17 06:30N 34°33' E 135°06'2 3.6
2017-Apr-17 05:59N 34°34' E 135°06'7 0.3
2017-Apr-16 04:12N 34°37' E 134°58'312.0
2017-Apr-16 03:56N 34°37' E 135°01'4 8.6
2017-Apr-16 03:29N 34°35' E 135°06'2 4.0
2017-Apr-16 03:00N 34°34' E 135°07'12 3.4
2017-Apr-15 23:38N 34°23' E 135°01'215.2
2017-Apr-15 23:30N 34°25' E 135°02'815.7
2017-Apr-15 23:00N 34°32' E 135°06'815.4
2017-Apr-15 22:30N 34°39' E 135°11'1 2.5
2017-Apr-15 22:00N 34°39' E 135°10'  

Dump ship's entire track history